sensor_id;sensor_type;location;lat;lon;timestamp;P1;durP1;ratioP1;P2;durP2;ratioP2
29378;SDS011;16362;47.202;15.258;2023-09-19T00:02:34;9.88;;;4.75;;
29378;SDS011;16362;47.202;15.258;2023-09-19T00:08:57;12.40;;;4.18;;
29378;SDS011;16362;47.202;15.258;2023-09-19T00:20:37;5.93;;;3.55;;
29378;SDS011;16362;47.202;15.258;2023-09-19T00:27:03;8.88;;;4.10;;
29378;SDS011;16362;47.202;15.258;2023-09-19T00:33:46;5.15;;;3.33;;
29378;SDS011;16362;47.202;15.258;2023-09-19T00:40:25;7.15;;;3.60;;
29378;SDS011;16362;47.202;15.258;2023-09-19T00:47:07;7.00;;;3.97;;
29378;SDS011;16362;47.202;15.258;2023-09-19T00:54:08;10.98;;;4.00;;
29378;SDS011;16362;47.202;15.258;2023-09-19T01:00:32;4.60;;;4.20;;
29378;SDS011;16362;47.202;15.258;2023-09-19T01:06:59;8.05;;;3.50;;
29378;SDS011;16362;47.202;15.258;2023-09-19T01:13:29;6.78;;;3.92;;
29378;SDS011;16362;47.202;15.258;2023-09-19T01:33:55;2.17;;;2.08;;
29378;SDS011;16362;47.202;15.258;2023-09-19T01:40:20;7.03;;;1.70;;
29378;SDS011;16362;47.202;15.258;2023-09-19T01:46:33;2.50;;;1.70;;
29378;SDS011;16362;47.202;15.258;2023-09-19T01:52:57;2.42;;;1.88;;
29378;SDS011;16362;47.202;15.258;2023-09-19T01:59:25;6.13;;;1.95;;
29378;SDS011;16362;47.202;15.258;2023-09-19T02:05:51;4.28;;;1.83;;
29378;SDS011;16362;47.202;15.258;2023-09-19T02:12:14;1.98;;;1.73;;
29378;SDS011;16362;47.202;15.258;2023-09-19T02:23:20;3.08;;;1.40;;
29378;SDS011;16362;47.202;15.258;2023-09-19T02:29:42;6.70;;;1.52;;
29378;SDS011;16362;47.202;15.258;2023-09-19T02:36:02;1.80;;;1.33;;
29378;SDS011;16362;47.202;15.258;2023-09-19T02:42:22;6.13;;;1.00;;
29378;SDS011;16362;47.202;15.258;2023-09-19T02:48:51;1.00;;;0.90;;
29378;SDS011;16362;47.202;15.258;2023-09-19T02:55:18;0.77;;;0.77;;
29378;SDS011;16362;47.202;15.258;2023-09-19T03:01:39;2.90;;;0.73;;
29378;SDS011;16362;47.202;15.258;2023-09-19T03:08:00;1.05;;;1.00;;
29378;SDS011;16362;47.202;15.258;2023-09-19T03:14:25;0.80;;;0.70;;
29378;SDS011;16362;47.202;15.258;2023-09-19T03:26:06;2.60;;;0.88;;
29378;SDS011;16362;47.202;15.258;2023-09-19T03:32:29;2.05;;;1.10;;
29378;SDS011;16362;47.202;15.258;2023-09-19T03:46:08;0.77;;;0.77;;
29378;SDS011;16362;47.202;15.258;2023-09-19T03:53:01;3.22;;;1.17;;
29378;SDS011;16362;47.202;15.258;2023-09-19T03:59:43;1.13;;;1.00;;
29378;SDS011;16362;47.202;15.258;2023-09-19T04:06:19;2.95;;;0.90;;
29378;SDS011;16362;47.202;15.258;2023-09-19T04:13:02;0.80;;;0.80;;
29378;SDS011;16362;47.202;15.258;2023-09-19T04:19:28;0.95;;;0.82;;
29378;SDS011;16362;47.202;15.258;2023-09-19T04:26:19;1.23;;;1.10;;
29378;SDS011;16362;47.202;15.258;2023-09-19T04:32:46;0.80;;;0.80;;
29378;SDS011;16362;47.202;15.258;2023-09-19T04:39:11;1.90;;;0.70;;
29378;SDS011;16362;47.202;15.258;2023-09-19T04:45:38;0.65;;;0.65;;
29378;SDS011;16362;47.202;15.258;2023-09-19T04:52:06;1.70;;;0.75;;
29378;SDS011;16362;47.202;15.258;2023-09-19T04:58:44;3.97;;;0.90;;
29378;SDS011;16362;47.202;15.258;2023-09-19T05:05:14;5.68;;;0.80;;
29378;SDS011;16362;47.202;15.258;2023-09-19T05:11:37;2.67;;;1.20;;
29378;SDS011;16362;47.202;15.258;2023-09-19T05:18:02;1.13;;;0.80;;
29378;SDS011;16362;47.202;15.258;2023-09-19T05:24:58;2.05;;;0.90;;
29378;SDS011;16362;47.202;15.258;2023-09-19T05:31:24;1.63;;;0.77;;
29378;SDS011;16362;47.202;15.258;2023-09-19T05:37:55;0.93;;;0.90;;
29378;SDS011;16362;47.202;15.258;2023-09-19T05:44:32;1.08;;;0.68;;
29378;SDS011;16362;47.202;15.258;2023-09-19T05:51:00;1.10;;;0.93;;
29378;SDS011;16362;47.202;15.258;2023-09-19T05:57:27;0.85;;;0.60;;
29378;SDS011;16362;47.202;15.258;2023-09-19T06:03:53;3.67;;;0.77;;
29378;SDS011;16362;47.202;15.258;2023-09-19T06:10:22;0.88;;;0.88;;
29378;SDS011;16362;47.202;15.258;2023-09-19T06:16:43;2.33;;;0.82;;
29378;SDS011;16362;47.202;15.258;2023-09-19T06:27:50;4.07;;;1.08;;
29378;SDS011;16362;47.202;15.258;2023-09-19T06:34:13;0.70;;;0.70;;
29378;SDS011;16362;47.202;15.258;2023-09-19T06:40:36;1.80;;;1.05;;
29378;SDS011;16362;47.202;15.258;2023-09-19T06:46:56;4.25;;;0.70;;
29378;SDS011;16362;47.202;15.258;2023-09-19T09:12:23;0.80;;;0.80;;
29378;SDS011;16362;47.202;15.258;2023-09-19T10:03:33;3.97;;;1.38;;
29378;SDS011;16362;47.202;15.258;2023-09-19T10:16:14;4.00;;;1.55;;
29378;SDS011;16362;47.202;15.258;2023-09-19T10:42:40;1.52;;;1.50;;
29378;SDS011;16362;47.202;15.258;2023-09-19T10:49:15;2.42;;;1.52;;
29378;SDS011;16362;47.202;15.258;2023-09-19T10:58:38;2.42;;;1.52;;
29378;SDS011;16362;47.202;15.258;2023-09-19T11:18:22;2.45;;;1.40;;
29378;SDS011;16362;47.202;15.258;2023-09-19T11:55:27;1.42;;;1.33;;
29378;SDS011;16362;47.202;15.258;2023-09-19T12:23:26;1.50;;;1.40;;
29378;SDS011;16362;47.202;15.258;2023-09-19T12:33:16;3.50;;;1.65;;
29378;SDS011;16362;47.202;15.258;2023-09-19T12:40:02;2.10;;;1.50;;
29378;SDS011;16362;47.202;15.258;2023-09-19T12:46:49;1.63;;;1.52;;
29378;SDS011;16362;47.202;15.258;2023-09-19T12:53:25;1.60;;;1.50;;
29378;SDS011;16362;47.202;15.258;2023-09-19T12:59:51;1.70;;;1.60;;
29378;SDS011;16362;47.202;15.258;2023-09-19T13:10:24;1.58;;;1.50;;
29378;SDS011;16362;47.202;15.258;2023-09-19T13:16:57;2.25;;;1.75;;
29378;SDS011;16362;47.202;15.258;2023-09-19T13:24:19;1.67;;;1.60;;
29378;SDS011;16362;47.202;15.258;2023-09-19T13:30:54;1.20;;;1.20;;
29378;SDS011;16362;47.202;15.258;2023-09-19T13:37:20;1.42;;;1.30;;
29378;SDS011;16362;47.202;15.258;2023-09-19T13:43:08;1.48;;;1.40;;
29378;SDS011;16362;47.202;15.258;2023-09-19T13:54:39;5.20;;;1.23;;
29378;SDS011;16362;47.202;15.258;2023-09-19T14:01:03;1.02;;;1.02;;
29378;SDS011;16362;47.202;15.258;2023-09-19T14:07:27;2.22;;;1.40;;
29378;SDS011;16362;47.202;15.258;2023-09-19T14:13:53;1.10;;;1.10;;
29378;SDS011;16362;47.202;15.258;2023-09-19T14:20:18;1.73;;;1.27;;
29378;SDS011;16362;47.202;15.258;2023-09-19T14:26:45;2.67;;;1.33;;
29378;SDS011;16362;47.202;15.258;2023-09-19T14:33:11;3.13;;;1.60;;
29378;SDS011;16362;47.202;15.258;2023-09-19T14:39:34;1.38;;;1.38;;
29378;SDS011;16362;47.202;15.258;2023-09-19T14:50:45;2.28;;;1.33;;
29378;SDS011;16362;47.202;15.258;2023-09-19T14:57:13;5.50;;;1.48;;
29378;SDS011;16362;47.202;15.258;2023-09-19T15:03:54;4.60;;;1.58;;
29378;SDS011;16362;47.202;15.258;2023-09-19T15:13:08;8.02;;;1.58;;
29378;SDS011;16362;47.202;15.258;2023-09-19T15:19:32;4.53;;;1.30;;
29378;SDS011;16362;47.202;15.258;2023-09-19T22:41:22;2.85;;;1.50;;
29378;SDS011;16362;47.202;15.258;2023-09-19T22:48:18;2.40;;;1.70;;
29378;SDS011;16362;47.202;15.258;2023-09-19T22:58:02;1.45;;;1.45;;
29378;SDS011;16362;47.202;15.258;2023-09-19T23:17:46;2.35;;;1.80;;
29378;SDS011;16362;47.202;15.258;2023-09-19T23:21:31;3.83;;;1.63;;
29378;SDS011;16362;47.202;15.258;2023-09-19T23:31:39;1.40;;;1.40;;
29378;SDS011;16362;47.202;15.258;2023-09-19T23:38:57;1.42;;;1.42;;
29378;SDS011;16362;47.202;15.258;2023-09-19T23:45:22;2.90;;;1.50;;
29378;SDS011;16362;47.202;15.258;2023-09-19T23:52:03;2.60;;;1.50;;
29378;SDS011;16362;47.202;15.258;2023-09-19T23:59:12;7.95;;;2.25;;
